sensor_id;sensor_type;location;lat;lon;timestamp;temperature;humidity
52941;DHT22;62001;53.366;6.636;2023-09-18T00:01:19;15.50;99.90
52941;DHT22;62001;53.366;6.636;2023-09-18T00:03:45;15.40;99.90
52941;DHT22;62001;53.366;6.636;2023-09-18T00:06:11;15.40;99.90
52941;DHT22;62001;53.366;6.636;2023-09-18T00:08:39;15.40;99.90
52941;DHT22;62001;53.366;6.636;2023-09-18T00:11:05;15.40;99.90
52941;DHT22;62001;53.366;6.636;2023-09-18T00:13:32;15.40;99.90
52941;DHT22;62001;53.366;6.636;2023-09-18T00:15:58;15.40;99.90
52941;DHT22;62001;53.366;6.636;2023-09-18T00:18:25;15.30;99.90
52941;DHT22;62001;53.366;6.636;2023-09-18T00:20:51;15.30;99.90
52941;DHT22;62001;53.366;6.636;2023-09-18T00:23:17;15.30;99.90
52941;DHT22;62001;53.366;6.636;2023-09-18T00:25:43;15.30;99.90
52941;DHT22;62001;53.366;6.636;2023-09-18T00:28:09;15.20;99.90
52941;DHT22;62001;53.366;6.636;2023-09-18T00:30:38;15.20;99.90
52941;DHT22;62001;53.366;6.636;2023-09-18T00:33:08;15.10;99.90
52941;DHT22;62001;53.366;6.636;2023-09-18T00:35:34;15.10;99.90
52941;DHT22;62001;53.366;6.636;2023-09-18T00:38:00;15.10;99.90
52941;DHT22;62001;53.366;6.636;2023-09-18T00:40:29;15.10;99.90
52941;DHT22;62001;53.366;6.636;2023-09-18T00:42:55;15.00;99.90
52941;DHT22;62001;53.366;6.636;2023-09-18T00:45:21;15.00;99.90
52941;DHT22;62001;53.366;6.636;2023-09-18T00:47:47;15.10;99.90
52941;DHT22;62001;53.366;6.636;2023-09-18T00:50:13;15.20;99.90
52941;DHT22;62001;53.366;6.636;2023-09-18T00:52:40;15.20;99.90
52941;DHT22;62001;53.366;6.636;2023-09-18T00:55:07;15.30;99.90
52941;DHT22;62001;53.366;6.636;2023-09-18T00:57:34;15.20;99.90
52941;DHT22;62001;53.366;6.636;2023-09-18T01:00:00;15.30;99.90
52941;DHT22;62001;53.366;6.636;2023-09-18T01:02:26;15.40;99.90
52941;DHT22;62001;53.366;6.636;2023-09-18T01:04:52;15.50;99.90
52941;DHT22;62001;53.366;6.636;2023-09-18T01:07:18;15.60;99.90
52941;DHT22;62001;53.366;6.636;2023-09-18T01:09:44;15.70;99.90
52941;DHT22;62001;53.366;6.636;2023-09-18T01:17:10;15.80;99.90
52941;DHT22;62001;53.366;6.636;2023-09-18T01:19:44;15.80;99.90
52941;DHT22;62001;53.366;6.636;2023-09-18T01:22:14;15.90;99.90
52941;DHT22;62001;53.366;6.636;2023-09-18T01:24:41;15.90;99.90
52941;DHT22;62001;53.366;6.636;2023-09-18T01:27:13;15.90;99.90
52941;DHT22;62001;53.366;6.636;2023-09-18T01:29:40;15.90;99.90
52941;DHT22;62001;53.366;6.636;2023-09-18T01:32:05;15.90;99.90
52941;DHT22;62001;53.366;6.636;2023-09-18T01:34:34;15.90;99.90
52941;DHT22;62001;53.366;6.636;2023-09-18T01:37:02;15.80;99.90
52941;DHT22;62001;53.366;6.636;2023-09-18T01:39:29;15.80;99.90
52941;DHT22;62001;53.366;6.636;2023-09-18T01:42:01;15.80;99.90
52941;DHT22;62001;53.366;6.636;2023-09-18T01:44:28;15.80;99.90
52941;DHT22;62001;53.366;6.636;2023-09-18T01:46:56;15.90;99.90
52941;DHT22;62001;53.366;6.636;2023-09-18T01:49:38;15.90;99.90
52941;DHT22;62001;53.366;6.636;2023-09-18T01:52:06;15.90;99.90
52941;DHT22;62001;53.366;6.636;2023-09-18T01:54:32;15.90;99.90
52941;DHT22;62001;53.366;6.636;2023-09-18T01:56:59;15.90;99.90
52941;DHT22;62001;53.366;6.636;2023-09-18T01:59:25;15.90;99.90
52941;DHT22;62001;53.366;6.636;2023-09-18T02:01:52;15.90;99.90
52941;DHT22;62001;53.366;6.636;2023-09-18T02:04:18;16.00;99.90
52941;DHT22;62001;53.366;6.636;2023-09-18T02:06:47;16.00;99.90
52941;DHT22;62001;53.366;6.636;2023-09-18T02:09:13;16.00;99.90
52941;DHT22;62001;53.366;6.636;2023-09-18T02:11:40;16.00;99.90
52941;DHT22;62001;53.366;6.636;2023-09-18T02:14:08;16.00;99.90
52941;DHT22;62001;53.366;6.636;2023-09-18T02:16:39;15.90;99.90
52941;DHT22;62001;53.366;6.636;2023-09-18T02:19:15;15.90;99.90
52941;DHT22;62001;53.366;6.636;2023-09-18T02:21:42;15.90;99.90
52941;DHT22;62001;53.366;6.636;2023-09-18T02:24:08;15.90;99.90
52941;DHT22;62001;53.366;6.636;2023-09-18T02:26:34;15.90;99.90
52941;DHT22;62001;53.366;6.636;2023-09-18T02:29:03;15.90;99.90
52941;DHT22;62001;53.366;6.636;2023-09-18T02:31:29;16.00;99.90
52941;DHT22;62001;53.366;6.636;2023-09-18T02:33:56;16.00;99.90
52941;DHT22;62001;53.366;6.636;2023-09-18T02:36:21;16.10;99.90
52941;DHT22;62001;53.366;6.636;2023-09-18T02:38:47;16.10;99.90
52941;DHT22;62001;53.366;6.636;2023-09-18T02:41:13;16.20;99.90
52941;DHT22;62001;53.366;6.636;2023-09-18T02:43:39;16.30;99.90
52941;DHT22;62001;53.366;6.636;2023-09-18T02:46:05;16.30;99.90
52941;DHT22;62001;53.366;6.636;2023-09-18T02:48:32;16.40;99.90
52941;DHT22;62001;53.366;6.636;2023-09-18T02:51:01;16.40;99.90
52941;DHT22;62001;53.366;6.636;2023-09-18T02:53:28;16.40;99.90
52941;DHT22;62001;53.366;6.636;2023-09-18T02:55:56;16.40;99.90
52941;DHT22;62001;53.366;6.636;2023-09-18T02:58:22;16.40;99.90
52941;DHT22;62001;53.366;6.636;2023-09-18T03:00:52;16.50;99.90
52941;DHT22;62001;53.366;6.636;2023-09-18T03:03:17;16.50;99.90
52941;DHT22;62001;53.366;6.636;2023-09-18T03:05:44;16.50;99.90
52941;DHT22;62001;53.366;6.636;2023-09-18T03:08:11;16.60;99.90
52941;DHT22;62001;53.366;6.636;2023-09-18T03:10:39;16.60;99.90
52941;DHT22;62001;53.366;6.636;2023-09-18T03:13:06;16.70;99.90
52941;DHT22;62001;53.366;6.636;2023-09-18T03:15:33;16.80;99.90
52941;DHT22;62001;53.366;6.636;2023-09-18T03:18:00;16.80;99.90
52941;DHT22;62001;53.366;6.636;2023-09-18T03:20:30;16.80;99.90
52941;DHT22;62001;53.366;6.636;2023-09-18T03:22:59;16.90;99.90
52941;DHT22;62001;53.366;6.636;2023-09-18T03:25:26;17.00;99.90
52941;DHT22;62001;53.366;6.636;2023-09-18T03:27:54;16.90;99.90
52941;DHT22;62001;53.366;6.636;2023-09-18T03:30:20;17.00;99.90
52941;DHT22;62001;53.366;6.636;2023-09-18T03:32:47;17.10;99.90
52941;DHT22;62001;53.366;6.636;2023-09-18T03:35:16;17.10;99.90
52941;DHT22;62001;53.366;6.636;2023-09-18T03:37:46;17.20;99.90
52941;DHT22;62001;53.366;6.636;2023-09-18T03:40:12;17.20;99.90
52941;DHT22;62001;53.366;6.636;2023-09-18T03:42:37;17.20;99.90
52941;DHT22;62001;53.366;6.636;2023-09-18T03:45:06;17.20;99.90
52941;DHT22;62001;53.366;6.636;2023-09-18T03:47:33;17.20;99.90
52941;DHT22;62001;53.366;6.636;2023-09-18T03:49:59;17.30;99.90
52941;DHT22;62001;53.366;6.636;2023-09-18T03:52:25;17.30;99.90
52941;DHT22;62001;53.366;6.636;2023-09-18T03:54:51;17.20;99.90
52941;DHT22;62001;53.366;6.636;2023-09-18T03:57:16;17.20;99.90
52941;DHT22;62001;53.366;6.636;2023-09-18T03:59:42;17.20;99.90
52941;DHT22;62001;53.366;6.636;2023-09-18T04:02:08;17.20;99.90
52941;DHT22;62001;53.366;6.636;2023-09-18T04:04:34;17.20;99.90
52941;DHT22;62001;53.366;6.636;2023-09-18T04:06:59;17.10;99.90
52941;DHT22;62001;53.366;6.636;2023-09-18T04:09:25;17.10;99.90
52941;DHT22;62001;53.366;6.636;2023-09-18T04:11:51;17.10;99.90
52941;DHT22;62001;53.366;6.636;2023-09-18T04:14:18;17.20;99.90
52941;DHT22;62001;53.366;6.636;2023-09-18T04:16:43;17.10;99.90
52941;DHT22;62001;53.366;6.636;2023-09-18T04:19:10;17.10;99.90
52941;DHT22;62001;53.366;6.636;2023-09-18T04:21:37;17.10;99.90
52941;DHT22;62001;53.366;6.636;2023-09-18T04:24:03;17.20;99.90
52941;DHT22;62001;53.366;6.636;2023-09-18T04:26:29;17.20;99.90
52941;DHT22;62001;53.366;6.636;2023-09-18T04:29:00;17.20;99.90
52941;DHT22;62001;53.366;6.636;2023-09-18T04:31:26;17.30;99.90
52941;DHT22;62001;53.366;6.636;2023-09-18T04:33:53;17.20;99.90
52941;DHT22;62001;53.366;6.636;2023-09-18T04:36:19;17.20;99.90
52941;DHT22;62001;53.366;6.636;2023-09-18T04:38:45;17.20;99.90
52941;DHT22;62001;53.366;6.636;2023-09-18T04:41:11;17.30;99.90
52941;DHT22;62001;53.366;6.636;2023-09-18T04:43:37;17.30;99.90
52941;DHT22;62001;53.366;6.636;2023-09-18T04:46:06;17.30;99.90
52941;DHT22;62001;53.366;6.636;2023-09-18T04:48:32;17.30;99.90
52941;DHT22;62001;53.366;6.636;2023-09-18T04:50:59;17.30;99.90
52941;DHT22;62001;53.366;6.636;2023-09-18T04:53:25;17.30;99.90
52941;DHT22;62001;53.366;6.636;2023-09-18T04:55:52;17.40;99.90
52941;DHT22;62001;53.366;6.636;2023-09-18T04:58:18;17.40;99.90
52941;DHT22;62001;53.366;6.636;2023-09-18T05:00:44;17.40;99.90
52941;DHT22;62001;53.366;6.636;2023-09-18T05:03:12;17.40;99.90
52941;DHT22;62001;53.366;6.636;2023-09-18T05:05:38;17.40;99.90
52941;DHT22;62001;53.366;6.636;2023-09-18T05:08:06;17.40;99.90
52941;DHT22;62001;53.366;6.636;2023-09-18T05:10:36;17.30;99.90
52941;DHT22;62001;53.366;6.636;2023-09-18T05:13:02;17.30;99.90
52941;DHT22;62001;53.366;6.636;2023-09-18T05:15:29;17.40;99.90
52941;DHT22;62001;53.366;6.636;2023-09-18T05:17:55;17.40;99.90
52941;DHT22;62001;53.366;6.636;2023-09-18T05:20:27;17.40;99.90
52941;DHT22;62001;53.366;6.636;2023-09-18T05:22:54;17.40;99.90
52941;DHT22;62001;53.366;6.636;2023-09-18T05:25:22;17.40;99.90
52941;DHT22;62001;53.366;6.636;2023-09-18T05:27:49;17.40;99.90
52941;DHT22;62001;53.366;6.636;2023-09-18T05:30:23;17.40;99.90
52941;DHT22;62001;53.366;6.636;2023-09-18T05:32:50;17.50;99.90
52941;DHT22;62001;53.366;6.636;2023-09-18T05:35:17;17.40;99.90
52941;DHT22;62001;53.366;6.636;2023-09-18T05:37:43;17.40;99.90
52941;DHT22;62001;53.366;6.636;2023-09-18T05:40:11;17.40;99.90
52941;DHT22;62001;53.366;6.636;2023-09-18T05:42:39;17.40;99.90
52941;DHT22;62001;53.366;6.636;2023-09-18T05:45:06;17.40;99.90
52941;DHT22;62001;53.366;6.636;2023-09-18T05:47:35;17.50;99.90
52941;DHT22;62001;53.366;6.636;2023-09-18T05:50:11;17.50;99.90
52941;DHT22;62001;53.366;6.636;2023-09-18T05:52:42;17.50;99.90
52941;DHT22;62001;53.366;6.636;2023-09-18T05:55:09;17.60;99.90
52941;DHT22;62001;53.366;6.636;2023-09-18T05:57:35;17.60;99.90
52941;DHT22;62001;53.366;6.636;2023-09-18T06:00:01;17.60;99.90
52941;DHT22;62001;53.366;6.636;2023-09-18T06:02:28;17.70;99.90
52941;DHT22;62001;53.366;6.636;2023-09-18T06:05:00;17.70;99.90
52941;DHT22;62001;53.366;6.636;2023-09-18T06:07:27;17.80;99.90
52941;DHT22;62001;53.366;6.636;2023-09-18T06:09:53;17.80;99.90
52941;DHT22;62001;53.366;6.636;2023-09-18T06:12:19;17.80;99.90
52941;DHT22;62001;53.366;6.636;2023-09-18T06:14:46;17.90;99.90
52941;DHT22;62001;53.366;6.636;2023-09-18T06:17:14;17.90;99.90
52941;DHT22;62001;53.366;6.636;2023-09-18T06:19:44;17.90;99.90
52941;DHT22;62001;53.366;6.636;2023-09-18T06:22:10;18.00;99.90
52941;DHT22;62001;53.366;6.636;2023-09-18T06:24:36;18.00;99.90
52941;DHT22;62001;53.366;6.636;2023-09-18T06:27:03;18.00;99.90
52941;DHT22;62001;53.366;6.636;2023-09-18T06:29:32;18.00;99.90
52941;DHT22;62001;53.366;6.636;2023-09-18T06:31:58;18.00;99.90
52941;DHT22;62001;53.366;6.636;2023-09-18T06:34:25;18.00;99.90
52941;DHT22;62001;53.366;6.636;2023-09-18T06:36:51;18.10;99.90
52941;DHT22;62001;53.366;6.636;2023-09-18T06:39:17;18.10;99.90
52941;DHT22;62001;53.366;6.636;2023-09-18T06:41:42;18.10;99.90
52941;DHT22;62001;53.366;6.636;2023-09-18T06:44:08;18.20;99.90
52941;DHT22;62001;53.366;6.636;2023-09-18T06:46:34;18.20;99.90
52941;DHT22;62001;53.366;6.636;2023-09-18T06:49:00;18.20;99.90
52941;DHT22;62001;53.366;6.636;2023-09-18T06:51:27;18.30;99.90
52941;DHT22;62001;53.366;6.636;2023-09-18T06:53:55;18.30;99.90
52941;DHT22;62001;53.366;6.636;2023-09-18T06:56:26;18.30;99.90
52941;DHT22;62001;53.366;6.636;2023-09-18T06:58:52;18.40;99.90
52941;DHT22;62001;53.366;6.636;2023-09-18T07:01:22;18.40;99.90
52941;DHT22;62001;53.366;6.636;2023-09-18T07:03:49;18.40;99.90
52941;DHT22;62001;53.366;6.636;2023-09-18T07:06:16;18.40;99.90
52941;DHT22;62001;53.366;6.636;2023-09-18T07:08:43;18.50;99.90
52941;DHT22;62001;53.366;6.636;2023-09-18T07:11:09;18.50;99.90
52941;DHT22;62001;53.366;6.636;2023-09-18T07:13:35;18.50;99.90
52941;DHT22;62001;53.366;6.636;2023-09-18T07:16:01;18.60;99.90
52941;DHT22;62001;53.366;6.636;2023-09-18T07:18:28;18.60;99.90
52941;DHT22;62001;53.366;6.636;2023-09-18T07:20:53;18.60;99.90
52941;DHT22;62001;53.366;6.636;2023-09-18T07:23:20;18.60;99.90
52941;DHT22;62001;53.366;6.636;2023-09-18T07:25:47;18.60;99.90
52941;DHT22;62001;53.366;6.636;2023-09-18T07:28:13;18.60;99.90
52941;DHT22;62001;53.366;6.636;2023-09-18T07:30:43;18.60;99.90
52941;DHT22;62001;53.366;6.636;2023-09-18T07:33:13;18.60;99.90
52941;DHT22;62001;53.366;6.636;2023-09-18T07:35:41;18.50;99.90
52941;DHT22;62001;53.366;6.636;2023-09-18T07:38:07;18.40;99.90
52941;DHT22;62001;53.366;6.636;2023-09-18T07:40:33;18.40;99.90
52941;DHT22;62001;53.366;6.636;2023-09-18T07:42:59;18.40;99.90
52941;DHT22;62001;53.366;6.636;2023-09-18T07:45:25;18.40;99.90
52941;DHT22;62001;53.366;6.636;2023-09-18T07:47:51;18.40;99.90
52941;DHT22;62001;53.366;6.636;2023-09-18T07:50:17;18.40;99.90
52941;DHT22;62001;53.366;6.636;2023-09-18T07:52:43;18.30;99.90
52941;DHT22;62001;53.366;6.636;2023-09-18T07:55:09;18.30;99.90
52941;DHT22;62001;53.366;6.636;2023-09-18T07:57:35;18.30;99.90
52941;DHT22;62001;53.366;6.636;2023-09-18T08:00:04;18.30;99.90
52941;DHT22;62001;53.366;6.636;2023-09-18T08:02:36;18.30;99.90
52941;DHT22;62001;53.366;6.636;2023-09-18T08:05:03;18.30;99.90
52941;DHT22;62001;53.366;6.636;2023-09-18T08:07:30;18.20;99.90
52941;DHT22;62001;53.366;6.636;2023-09-18T08:09:56;18.30;99.90
52941;DHT22;62001;53.366;6.636;2023-09-18T08:12:23;18.20;99.90
52941;DHT22;62001;53.366;6.636;2023-09-18T08:14:49;18.30;99.90
52941;DHT22;62001;53.366;6.636;2023-09-18T08:17:16;18.20;99.90
52941;DHT22;62001;53.366;6.636;2023-09-18T08:19:42;18.30;99.90
52941;DHT22;62001;53.366;6.636;2023-09-18T08:22:10;18.30;99.90
52941;DHT22;62001;53.366;6.636;2023-09-18T08:24:40;18.30;99.90
52941;DHT22;62001;53.366;6.636;2023-09-18T08:27:07;18.40;99.90
52941;DHT22;62001;53.366;6.636;2023-09-18T08:29:33;18.40;99.90
52941;DHT22;62001;53.366;6.636;2023-09-18T08:31:58;18.50;99.90
52941;DHT22;62001;53.366;6.636;2023-09-18T08:34:24;18.40;99.90
52941;DHT22;62001;53.366;6.636;2023-09-18T08:36:50;18.50;99.90
52941;DHT22;62001;53.366;6.636;2023-09-18T08:39:16;18.50;99.90
52941;DHT22;62001;53.366;6.636;2023-09-18T08:41:43;18.50;99.90
52941;DHT22;62001;53.366;6.636;2023-09-18T08:44:10;18.50;99.90
52941;DHT22;62001;53.366;6.636;2023-09-18T08:46:38;18.50;99.90
52941;DHT22;62001;53.366;6.636;2023-09-18T08:49:05;18.50;99.90
52941;DHT22;62001;53.366;6.636;2023-09-18T08:51:33;18.60;99.90
52941;DHT22;62001;53.366;6.636;2023-09-18T08:53:59;18.60;99.90
52941;DHT22;62001;53.366;6.636;2023-09-18T08:56:27;18.60;99.90
52941;DHT22;62001;53.366;6.636;2023-09-18T08:58:53;18.60;99.90
52941;DHT22;62001;53.366;6.636;2023-09-18T09:01:19;18.60;99.90
52941;DHT22;62001;53.366;6.636;2023-09-18T09:03:46;18.60;99.90
52941;DHT22;62001;53.366;6.636;2023-09-18T09:06:12;18.60;99.90
52941;DHT22;62001;53.366;6.636;2023-09-18T09:08:39;18.60;99.90
52941;DHT22;62001;53.366;6.636;2023-09-18T09:11:05;18.70;99.90
52941;DHT22;62001;53.366;6.636;2023-09-18T09:13:31;18.70;99.90
52941;DHT22;62001;53.366;6.636;2023-09-18T09:15:58;18.70;99.90
52941;DHT22;62001;53.366;6.636;2023-09-18T09:18:26;18.80;99.90
52941;DHT22;62001;53.366;6.636;2023-09-18T09:20:59;18.90;99.90
52941;DHT22;62001;53.366;6.636;2023-09-18T09:23:27;18.90;99.90
52941;DHT22;62001;53.366;6.636;2023-09-18T09:25:54;18.90;99.90
52941;DHT22;62001;53.366;6.636;2023-09-18T09:28:30;18.90;99.90
52941;DHT22;62001;53.366;6.636;2023-09-18T09:31:03;18.90;99.90
52941;DHT22;62001;53.366;6.636;2023-09-18T09:33:29;18.90;99.90
52941;DHT22;62001;53.366;6.636;2023-09-18T09:35:56;19.00;99.90
52941;DHT22;62001;53.366;6.636;2023-09-18T09:38:29;19.00;99.90
52941;DHT22;62001;53.366;6.636;2023-09-18T09:40:57;19.10;99.90
52941;DHT22;62001;53.366;6.636;2023-09-18T09:43:26;19.10;99.90
52941;DHT22;62001;53.366;6.636;2023-09-18T09:46:02;19.10;99.90
52941;DHT22;62001;53.366;6.636;2023-09-18T09:48:28;19.10;99.90
52941;DHT22;62001;53.366;6.636;2023-09-18T09:51:00;19.20;99.90
52941;DHT22;62001;53.366;6.636;2023-09-18T09:53:45;19.30;99.90
52941;DHT22;62001;53.366;6.636;2023-09-18T09:56:14;19.40;99.90
52941;DHT22;62001;53.366;6.636;2023-09-18T09:58:40;19.50;99.90
52941;DHT22;62001;53.366;6.636;2023-09-18T10:01:12;19.50;99.90
52941;DHT22;62001;53.366;6.636;2023-09-18T10:03:44;19.50;99.90
52941;DHT22;62001;53.366;6.636;2023-09-18T10:06:11;19.50;99.90
52941;DHT22;62001;53.366;6.636;2023-09-18T10:08:40;19.50;99.90
52941;DHT22;62001;53.366;6.636;2023-09-18T10:11:08;19.60;99.90
52941;DHT22;62001;53.366;6.636;2023-09-18T10:13:47;19.70;99.90
52941;DHT22;62001;53.366;6.636;2023-09-18T10:16:18;19.70;99.90
52941;DHT22;62001;53.366;6.636;2023-09-18T10:24:25;20.00;99.90
52941;DHT22;62001;53.366;6.636;2023-09-18T10:26:56;20.00;99.90
52941;DHT22;62001;53.366;6.636;2023-09-18T10:29:24;20.10;99.90
52941;DHT22;62001;53.366;6.636;2023-09-18T10:31:54;20.20;99.90
52941;DHT22;62001;53.366;6.636;2023-09-18T10:34:21;20.30;99.90
52941;DHT22;62001;53.366;6.636;2023-09-18T10:36:50;20.30;99.90
52941;DHT22;62001;53.366;6.636;2023-09-18T10:39:16;20.50;99.90
52941;DHT22;62001;53.366;6.636;2023-09-18T10:41:56;20.60;99.90
52941;DHT22;62001;53.366;6.636;2023-09-18T10:44:28;20.80;99.90
52941;DHT22;62001;53.366;6.636;2023-09-18T10:46:54;21.00;99.90
52941;DHT22;62001;53.366;6.636;2023-09-18T10:49:24;21.10;99.90
52941;DHT22;62001;53.366;6.636;2023-09-18T10:51:54;21.10;99.90
52941;DHT22;62001;53.366;6.636;2023-09-18T10:54:22;21.10;99.90
52941;DHT22;62001;53.366;6.636;2023-09-18T10:56:49;21.30;99.90
52941;DHT22;62001;53.366;6.636;2023-09-18T10:59:16;21.40;99.90
52941;DHT22;62001;53.366;6.636;2023-09-18T11:01:43;21.60;99.90
52941;DHT22;62001;53.366;6.636;2023-09-18T11:04:09;21.70;99.90
52941;DHT22;62001;53.366;6.636;2023-09-18T11:09:22;21.70;99.90
52941;DHT22;62001;53.366;6.636;2023-09-18T11:12:02;21.80;99.90
52941;DHT22;62001;53.366;6.636;2023-09-18T11:14:57;22.00;99.90
52941;DHT22;62001;53.366;6.636;2023-09-18T11:17:35;22.10;99.90
52941;DHT22;62001;53.366;6.636;2023-09-18T11:20:24;22.10;99.90
52941;DHT22;62001;53.366;6.636;2023-09-18T11:23:16;22.20;99.90
52941;DHT22;62001;53.366;6.636;2023-09-18T11:25:43;22.20;99.90
52941;DHT22;62001;53.366;6.636;2023-09-18T11:28:15;22.20;99.90
52941;DHT22;62001;53.366;6.636;2023-09-18T11:30:54;22.30;99.90
52941;DHT22;62001;53.366;6.636;2023-09-18T11:33:36;22.30;99.90
52941;DHT22;62001;53.366;6.636;2023-09-18T11:36:11;22.30;99.90
52941;DHT22;62001;53.366;6.636;2023-09-18T11:38:52;22.30;99.90
52941;DHT22;62001;53.366;6.636;2023-09-18T11:41:24;22.30;99.90
52941;DHT22;62001;53.366;6.636;2023-09-18T11:46:51;22.50;99.90
52941;DHT22;62001;53.366;6.636;2023-09-18T11:49:24;22.70;99.90
52941;DHT22;62001;53.366;6.636;2023-09-18T11:51:54;22.80;99.90
52941;DHT22;62001;53.366;6.636;2023-09-18T11:54:20;22.90;99.90
52941;DHT22;62001;53.366;6.636;2023-09-18T11:56:47;23.00;99.90
52941;DHT22;62001;53.366;6.636;2023-09-18T11:59:13;22.90;99.90
52941;DHT22;62001;53.366;6.636;2023-09-18T12:01:39;22.90;99.90
52941;DHT22;62001;53.366;6.636;2023-09-18T12:04:12;22.80;99.90
52941;DHT22;62001;53.366;6.636;2023-09-18T12:06:41;22.90;99.90
52941;DHT22;62001;53.366;6.636;2023-09-18T12:09:07;22.90;99.90
52941;DHT22;62001;53.366;6.636;2023-09-18T12:11:34;22.80;99.90
52941;DHT22;62001;53.366;6.636;2023-09-18T12:14:04;22.70;99.90
52941;DHT22;62001;53.366;6.636;2023-09-18T12:16:31;22.60;99.90
52941;DHT22;62001;53.366;6.636;2023-09-18T12:18:57;22.50;99.90
52941;DHT22;62001;53.366;6.636;2023-09-18T12:21:24;22.40;99.90
52941;DHT22;62001;53.366;6.636;2023-09-18T12:23:50;22.30;99.90
52941;DHT22;62001;53.366;6.636;2023-09-18T12:26:16;22.20;99.90
52941;DHT22;62001;53.366;6.636;2023-09-18T12:28:45;22.20;99.90
52941;DHT22;62001;53.366;6.636;2023-09-18T12:31:15;22.10;99.90
52941;DHT22;62001;53.366;6.636;2023-09-18T12:33:42;22.10;99.90
52941;DHT22;62001;53.366;6.636;2023-09-18T12:36:19;22.20;99.90
52941;DHT22;62001;53.366;6.636;2023-09-18T12:38:56;22.50;99.90
52941;DHT22;62001;53.366;6.636;2023-09-18T12:41:26;22.80;99.90
52941;DHT22;62001;53.366;6.636;2023-09-18T12:43:52;22.90;99.90
52941;DHT22;62001;53.366;6.636;2023-09-18T12:46:20;22.90;99.90
52941;DHT22;62001;53.366;6.636;2023-09-18T12:48:47;22.80;99.90
52941;DHT22;62001;53.366;6.636;2023-09-18T12:51:14;22.60;99.90
52941;DHT22;62001;53.366;6.636;2023-09-18T12:53:42;22.50;99.90
52941;DHT22;62001;53.366;6.636;2023-09-18T12:56:12;22.40;99.90
52941;DHT22;62001;53.366;6.636;2023-09-18T12:58:41;22.40;99.90
52941;DHT22;62001;53.366;6.636;2023-09-18T13:01:09;22.50;99.90
52941;DHT22;62001;53.366;6.636;2023-09-18T13:03:41;22.60;99.90
52941;DHT22;62001;53.366;6.636;2023-09-18T13:06:12;22.50;99.90
52941;DHT22;62001;53.366;6.636;2023-09-18T13:08:43;22.60;99.90
52941;DHT22;62001;53.366;6.636;2023-09-18T13:11:09;22.70;99.90
52941;DHT22;62001;53.366;6.636;2023-09-18T13:13:40;22.90;99.90
52941;DHT22;62001;53.366;6.636;2023-09-18T13:16:08;22.90;99.90
52941;DHT22;62001;53.366;6.636;2023-09-18T13:18:37;22.90;99.90
52941;DHT22;62001;53.366;6.636;2023-09-18T13:21:12;22.80;99.90
52941;DHT22;62001;53.366;6.636;2023-09-18T13:23:39;22.70;99.90
52941;DHT22;62001;53.366;6.636;2023-09-18T13:26:07;22.60;99.90
52941;DHT22;62001;53.366;6.636;2023-09-18T13:28:36;22.60;99.90
52941;DHT22;62001;53.366;6.636;2023-09-18T13:31:03;22.60;99.90
52941;DHT22;62001;53.366;6.636;2023-09-18T13:33:38;22.70;99.90
52941;DHT22;62001;53.366;6.636;2023-09-18T13:36:04;22.80;99.90
52941;DHT22;62001;53.366;6.636;2023-09-18T13:38:30;22.80;99.90
52941;DHT22;62001;53.366;6.636;2023-09-18T13:40:56;22.80;99.90
52941;DHT22;62001;53.366;6.636;2023-09-18T13:43:22;22.70;99.90
52941;DHT22;62001;53.366;6.636;2023-09-18T13:45:49;22.80;99.90
52941;DHT22;62001;53.366;6.636;2023-09-18T13:48:18;22.80;99.90
52941;DHT22;62001;53.366;6.636;2023-09-18T13:50:44;22.80;99.90
52941;DHT22;62001;53.366;6.636;2023-09-18T13:53:12;22.60;99.90
52941;DHT22;62001;53.366;6.636;2023-09-18T13:55:38;22.60;99.90
52941;DHT22;62001;53.366;6.636;2023-09-18T13:58:04;22.60;99.90
52941;DHT22;62001;53.366;6.636;2023-09-18T14:00:30;22.60;99.90
52941;DHT22;62001;53.366;6.636;2023-09-18T14:02:56;22.60;99.90
52941;DHT22;62001;53.366;6.636;2023-09-18T14:05:22;22.60;99.90
52941;DHT22;62001;53.366;6.636;2023-09-18T14:07:48;22.60;99.90
52941;DHT22;62001;53.366;6.636;2023-09-18T14:10:15;22.60;99.90
52941;DHT22;62001;53.366;6.636;2023-09-18T14:12:43;22.60;99.90
52941;DHT22;62001;53.366;6.636;2023-09-18T14:15:09;22.60;99.90
52941;DHT22;62001;53.366;6.636;2023-09-18T14:17:36;22.60;99.90
52941;DHT22;62001;53.366;6.636;2023-09-18T14:20:04;22.60;99.90
52941;DHT22;62001;53.366;6.636;2023-09-18T14:22:36;22.60;99.90
52941;DHT22;62001;53.366;6.636;2023-09-18T14:25:03;22.50;99.90
52941;DHT22;62001;53.366;6.636;2023-09-18T14:27:34;22.40;99.90
52941;DHT22;62001;53.366;6.636;2023-09-18T14:30:01;22.30;99.90
52941;DHT22;62001;53.366;6.636;2023-09-18T14:32:29;22.40;99.90
52941;DHT22;62001;53.366;6.636;2023-09-18T14:34:55;22.40;99.90
52941;DHT22;62001;53.366;6.636;2023-09-18T14:37:21;22.60;99.90
52941;DHT22;62001;53.366;6.636;2023-09-18T14:39:47;22.60;99.90
52941;DHT22;62001;53.366;6.636;2023-09-18T14:42:12;22.60;99.90
52941;DHT22;62001;53.366;6.636;2023-09-18T14:44:38;22.60;99.90
52941;DHT22;62001;53.366;6.636;2023-09-18T14:47:10;22.50;99.90
52941;DHT22;62001;53.366;6.636;2023-09-18T14:49:36;22.40;99.90
52941;DHT22;62001;53.366;6.636;2023-09-18T14:52:02;22.30;99.90
52941;DHT22;62001;53.366;6.636;2023-09-18T14:54:29;22.20;99.90
52941;DHT22;62001;53.366;6.636;2023-09-18T14:56:54;22.10;99.90
52941;DHT22;62001;53.366;6.636;2023-09-18T14:59:20;22.10;99.90
52941;DHT22;62001;53.366;6.636;2023-09-18T15:01:46;22.00;99.90
52941;DHT22;62001;53.366;6.636;2023-09-18T15:04:14;22.00;99.90
52941;DHT22;62001;53.366;6.636;2023-09-18T15:06:40;22.00;99.90
52941;DHT22;62001;53.366;6.636;2023-09-18T15:09:06;22.00;99.90
52941;DHT22;62001;53.366;6.636;2023-09-18T15:11:33;21.90;99.90
52941;DHT22;62001;53.366;6.636;2023-09-18T15:14:01;21.90;99.90
52941;DHT22;62001;53.366;6.636;2023-09-18T15:16:27;22.00;99.90
52941;DHT22;62001;53.366;6.636;2023-09-18T15:18:56;22.10;99.90
52941;DHT22;62001;53.366;6.636;2023-09-18T15:21:26;22.20;99.90
52941;DHT22;62001;53.366;6.636;2023-09-18T15:23:51;22.40;99.90
52941;DHT22;62001;53.366;6.636;2023-09-18T15:26:17;22.40;99.90
52941;DHT22;62001;53.366;6.636;2023-09-18T15:28:43;22.50;99.90
52941;DHT22;62001;53.366;6.636;2023-09-18T15:31:09;22.60;99.90
52941;DHT22;62001;53.366;6.636;2023-09-18T15:33:35;22.50;99.90
52941;DHT22;62001;53.366;6.636;2023-09-18T15:36:00;22.30;99.90
52941;DHT22;62001;53.366;6.636;2023-09-18T15:38:27;22.30;99.90
52941;DHT22;62001;53.366;6.636;2023-09-18T15:40:53;22.20;99.90
52941;DHT22;62001;53.366;6.636;2023-09-18T15:43:19;22.10;99.90
52941;DHT22;62001;53.366;6.636;2023-09-18T15:45:45;22.00;99.90
52941;DHT22;62001;53.366;6.636;2023-09-18T15:48:11;22.00;99.90
52941;DHT22;62001;53.366;6.636;2023-09-18T15:50:37;22.00;99.90